Time;durP1;ratioP1;P1;durP2;ratioP2;P2;SDS_P1;SDS_P2;PMS_P1;PMS_P2;Temp;Humidity;BMP_temperature;BMP_pressure;BME280_temperature;BME280_humidity;BME280_pressure;Samples;Min_cycle;Max_cycle;Signal;HPM_P1;HPM_P2
2023/10/01 00:00:09;;;;;;;3.78;2.00;;;19.70;70.80;;;;;;5073453;28;20044;-29
2023/10/01 00:02:37;;;;;;;3.47;1.90;;;19.10;71.20;;;;;;5073857;28;20135;-29
2023/10/01 00:05:04;;;;;;;3.08;2.00;;;20.10;71.00;;;;;;5073391;28;20048;-29
2023/10/01 00:07:31;;;;;;;3.75;2.10;;;20.30;86.50;;;;;;5073044;28;20409;-28
2023/10/01 00:10:01;;;;;;;2.60;1.70;;;19.90;73.20;;;;;;5072680;28;20470;-29
2023/10/01 00:12:29;;;;;;;3.38;1.67;;;20.90;69.70;;;;;;5073434;28;20052;-29
2023/10/01 00:14:56;;;;;;;2.45;1.80;;;;;;;;;;5073576;28;20055;-33
2023/10/01 00:17:23;;;;;;;3.22;1.90;;;19.90;86.80;;;;;;5073135;28;20072;-33
2023/10/01 00:19:50;;;;;;;3.30;2.08;;;;;;;;;;5073096;28;20519;-31
2023/10/01 00:22:17;;;;;;;4.47;2.25;;;20.00;86.20;;;;;;5073240;28;20474;-36
2023/10/01 00:24:44;;;;;;;3.70;2.00;;;19.80;70.00;;;;;;5073205;28;20124;-32
2023/10/01 00:27:11;;;;;;;2.92;2.10;;;19.00;85.80;;;;;;5072824;28;20846;-34
2023/10/01 00:29:39;;;;;;;3.65;2.17;;;19.90;68.30;;;;;;5072805;28;20136;-31
2023/10/01 00:32:06;;;;;;;4.07;1.90;;;;;;;;;;5073113;28;20139;-32
2023/10/01 00:34:33;;;;;;;2.67;1.90;;;;;;;;;;5073051;28;20087;-33
2023/10/01 00:37:02;;;;;;;3.50;2.25;;;;;;;;;;5072265;28;20127;-34
2023/10/01 00:39:29;;;;;;;4.32;2.33;;;18.80;83.50;;;;;;5072633;28;20075;-28
2023/10/01 00:41:56;;;;;;;3.35;2.00;;;;;;;;;;5072951;28;20083;-28
2023/10/01 00:44:24;;;;;;;3.25;1.90;;;20.50;71.90;;;;;;5072772;28;20135;-29
2023/10/01 00:46:52;;;;;;;4.72;2.38;;;19.90;68.20;;;;;;5072769;28;20045;-30
2023/10/01 00:49:21;;;;;;;2.80;2.10;;;;;;;;;;5072533;28;20496;-30
2023/10/01 00:51:48;;;;;;;2.80;2.00;;;20.00;85.80;;;;;;5072952;28;20139;-28
2023/10/01 00:54:15;;;;;;;3.25;2.00;;;;;;;;;;5072413;28;20561;-29
2023/10/01 00:56:43;;;;;;;3.38;2.00;;;19.70;85.80;;;;;;5072567;28;20098;-28
2023/10/01 00:59:11;;;;;;;3.83;2.58;;;19.20;86.50;;;;;;5072345;28;20054;-30
2023/10/01 01:01:39;;;;;;;2.97;2.03;;;20.10;85.90;;;;;;5072545;28;20052;-29
2023/10/01 01:04:17;;;;;;;3.50;2.10;;;21.00;86.50;;;;;;5072307;28;20044;-28
2023/10/01 01:06:47;;;;;;;4.32;2.30;;;20.50;86.60;;;;;;5072325;28;20040;-28
2023/10/01 01:09:15;;;;;;;3.30;2.20;;;19.90;86.20;;;;;;5072093;28;20053;-28
2023/10/01 01:11:42;;;;;;;3.22;2.13;;;;;;;;;;5072256;28;20160;-29
2023/10/01 01:14:09;;;;;;;3.53;2.00;;;19.90;86.50;;;;;;5072209;28;20223;-27
2023/10/01 01:16:36;;;;;;;3.67;2.33;;;;;;;;;;5072513;28;20048;-29
2023/10/01 01:19:03;;;;;;;3.80;2.35;;;20.20;86.30;;;;;;5071531;28;20127;-29
2023/10/01 01:21:32;;;;;;;4.57;2.25;;;19.50;85.10;;;;;;5072302;28;20136;-28
2023/10/01 01:24:03;;;;;;;4.60;2.33;;;20.60;86.00;;;;;;5072130;28;20080;-29
2023/10/01 01:26:31;;;;;;;4.10;2.30;;;20.00;72.40;;;;;;5072141;28;20127;-30
2023/10/01 01:29:16;;;;;;;3.90;2.10;;;;;;;;;;5071714;28;20057;-30
2023/10/01 01:31:45;;;;;;;4.03;2.28;;;20.60;71.30;;;;;;5071756;28;20048;-28
2023/10/01 01:34:13;;;;;;;5.40;2.42;;;;;;;;;;5072045;28;20114;-30
2023/10/01 01:36:42;;;;;;;3.13;2.22;;;;;;;;;;5071678;28;20044;-28
2023/10/01 01:39:26;;;;;;;3.78;2.30;;;20.00;68.00;;;;;;5071663;28;20044;-29
2023/10/01 01:41:54;;;;;;;2.90;2.17;;;;;;;;;;5071970;28;20048;-29
2023/10/01 01:44:23;;;;;;;2.45;1.90;;;;;;;;;;5071703;28;20044;-28
2023/10/01 01:46:50;;;;;;;3.70;2.30;;;20.40;86.30;;;;;;5071989;28;20127;-28
2023/10/01 01:49:19;;;;;;;3.72;2.30;;;20.00;68.00;;;;;;5071647;28;20071;-30
2023/10/01 01:51:57;;;;;;;4.15;2.33;;;;;;;;;;5071903;28;20076;-28
2023/10/01 01:54:27;;;;;;;3.33;2.40;;;19.70;85.70;;;;;;5071746;28;20048;-28
2023/10/01 01:56:55;;;;;;;3.25;2.50;;;;;;;;;;5071706;28;20044;-28
2023/10/01 01:59:24;;;;;;;4.68;2.53;;;20.00;85.50;;;;;;5071691;28;20060;-28
2023/10/01 02:01:52;;;;;;;3.83;2.47;;;20.00;68.00;;;;;;5071764;28;20197;-29
2023/10/01 02:04:19;;;;;;;3.35;2.03;;;21.10;78.60;;;;;;5071712;28;20048;-29
2023/10/01 02:06:47;;;;;;;4.03;2.10;;;;;;;;;;5071512;28;20054;-31
2023/10/01 02:09:19;;;;;;;4.15;2.50;;;19.80;85.40;;;;;;5071158;28;20424;-28
2023/10/01 02:11:48;;;;;;;3.58;2.40;;;20.10;84.30;;;;;;5071429;28;20102;-29
2023/10/01 02:14:30;;;;;;;3.65;2.45;;;19.80;85.40;;;;;;5071539;28;20429;-30
2023/10/01 02:17:03;;;;;;;4.50;2.50;;;20.80;86.00;;;;;;5071573;28;20048;-29
2023/10/01 02:19:30;;;;;;;3.25;2.20;;;19.60;72.10;;;;;;5071120;28;20194;-29
2023/10/01 02:22:00;;;;;;;4.50;2.80;;;20.10;68.00;;;;;;5071700;28;20128;-28
2023/10/01 02:24:37;;;;;;;3.20;2.30;;;19.90;85.70;;;;;;5070449;28;20166;-28
2023/10/01 02:27:05;;;;;;;3.35;2.30;;;20.00;84.00;;;;;;5071323;28;20049;-29
2023/10/01 02:29:45;;;;;;;3.38;2.40;;;19.90;85.30;;;;;;5071346;28;20052;-27
2023/10/01 02:32:14;;;;;;;4.35;2.50;;;;;;;;;;5072983;28;20052;-29
2023/10/01 02:34:42;;;;;;;3.47;2.17;;;20.20;85.80;;;;;;5075421;28;20084;-29
2023/10/01 02:37:09;;;;;;;3.35;2.55;;;19.80;86.10;;;;;;5074703;28;20413;-37
2023/10/01 02:39:37;;;;;;;4.03;2.47;;;;;;;;;;5075067;28;20135;-38
2023/10/01 02:42:21;;;;;;;2.95;2.28;;;20.10;67.90;;;;;;5075054;28;20048;-32
2023/10/01 02:44:47;;;;;;;3.90;2.60;;;20.20;85.50;;;;;;5075264;28;20063;-37
2023/10/01 02:47:17;;;;;;;2.95;2.33;;;;;;;;;;5075040;28;20127;-33
2023/10/01 02:49:53;;;;;;;3.28;2.30;;;20.00;85.40;;;;;;5074880;28;20053;-34
2023/10/01 02:52:21;;;;;;;4.97;2.60;;;19.70;85.60;;;;;;5074712;28;20049;-33
2023/10/01 02:54:54;;;;;;;3.95;2.55;;;;;;;;;;5074925;28;20068;-33
2023/10/01 02:57:24;;;;;;;3.42;2.38;;;19.30;67.40;;;;;;5074982;28;20053;-32
2023/10/01 03:00:20;;;;;;;3.63;2.40;;;19.70;85.40;;;;;;5074575;28;20049;-36
2023/10/01 03:02:51;;;;;;;4.25;2.67;;;;;;;;;;5074779;28;20049;-31
2023/10/01 03:05:28;;;;;;;4.28;2.63;;;;;;;;;;5074761;28;20048;-36
2023/10/01 03:07:56;;;;;;;3.67;2.55;;;;;;;;;;5074162;28;20048;-33
2023/10/01 03:10:25;;;;;;;4.13;2.50;;;20.30;73.60;;;;;;5074596;28;20060;-34
2023/10/01 03:12:55;;;;;;;4.05;2.53;;;19.40;81.60;;;;;;5074355;28;20044;-33
2023/10/01 03:15:26;;;;;;;3.15;2.53;;;20.30;83.30;;;;;;5074551;28;20509;-36
2023/10/01 03:17:56;;;;;;;4.45;2.58;;;;;;;;;;5074208;28;20045;-35
2023/10/01 03:23:05;;;;;;;2.90;2.28;;;19.80;85.10;;;;;;5074090;28;20041;-33
2023/10/01 03:25:40;;;;;;;3.03;2.35;;;19.90;78.00;;;;;;5074037;28;20052;-34
2023/10/01 03:28:12;;;;;;;4.07;2.67;;;20.10;67.80;;;;;;5073875;28;20044;-32
2023/10/01 03:30:45;;;;;;;3.47;2.53;;;21.30;86.00;;;;;;5074571;28;20059;-33
2023/10/01 03:33:15;;;;;;;3.97;2.50;;;19.20;85.20;;;;;;5074204;28;20045;-33
2023/10/01 03:35:47;;;;;;;3.67;2.63;;;20.10;83.40;;;;;;5074121;28;20074;-33
2023/10/01 03:38:15;;;;;;;4.20;2.70;;;20.80;85.60;;;;;;5073429;28;20044;-35
2023/10/01 03:40:58;;;;;;;3.35;2.42;;;;;;;;;;5073983;28;20052;-33
2023/10/01 03:43:32;;;;;;;3.13;2.40;;;20.80;76.50;;;;;;5074086;28;20052;-33
2023/10/01 03:46:06;;;;;;;4.13;2.90;;;20.10;86.10;;;;;;5074114;28;20044;-35
2023/10/01 03:48:57;;;;;;;3.37;2.40;;;20.40;85.50;;;;;;5073738;28;20079;-34
2023/10/01 03:51:28;;;;;;;3.25;2.60;;;19.50;85.00;;;;;;5073632;28;20052;-35
2023/10/01 03:53:59;;;;;;;4.10;2.65;;;19.60;85.00;;;;;;5074058;28;20044;-32
2023/10/01 03:56:29;;;;;;;3.42;2.60;;;19.70;81.10;;;;;;5073562;28;20584;-33
2023/10/01 03:58:57;;;;;;;4.10;2.75;;;20.50;85.50;;;;;;5073448;28;20053;-33
2023/10/01 04:01:33;;;;;;;4.00;2.63;;;20.60;85.50;;;;;;5073678;28;20127;-36
2023/10/01 04:04:01;;;;;;;3.38;2.50;;;20.50;85.90;;;;;;5073914;28;20052;-33
2023/10/01 04:06:29;;;;;;;3.63;2.70;;;19.80;84.90;;;;;;5073547;28;20063;-37
2023/10/01 04:09:00;;;;;;;3.20;2.33;;;;;;;;;;5073462;28;20076;-33
2023/10/01 04:14:11;;;;;;;4.50;2.83;;;20.10;67.80;;;;;;5073270;28;20048;-34
2023/10/01 04:16:46;;;;;;;4.55;2.83;;;19.50;84.90;;;;;;5073538;28;20048;-35
2023/10/01 04:19:18;;;;;;;3.45;2.75;;;20.10;67.70;;;;;;5073240;28;20421;-31
2023/10/01 04:21:50;;;;;;;3.92;2.67;;;19.70;85.70;;;;;;5073312;28;20048;-36
2023/10/01 04:24:16;;;;;;;4.22;2.85;;;19.90;85.10;;;;;;5073017;28;20198;-35
2023/10/01 04:26:44;;;;;;;4.13;2.88;;;19.50;75.90;;;;;;5072884;28;20048;-33
2023/10/01 04:29:16;;;;;;;3.80;2.65;;;20.30;75.70;;;;;;5073115;28;20075;-35
2023/10/01 04:31:47;;;;;;;4.75;2.83;;;19.20;84.80;;;;;;5073157;28;20056;-36
2023/10/01 04:34:14;;;;;;;4.78;2.97;;;19.50;83.70;;;;;;5072922;28;20409;-37
2023/10/01 04:36:42;;;;;;;4.72;2.80;;;;;;;;;;5072389;28;20053;-33
2023/10/01 04:39:10;;;;;;;3.58;2.60;;;;;;;;;;5072626;28;20497;-31
2023/10/01 04:41:37;;;;;;;4.53;2.80;;;19.90;85.10;;;;;;5072993;28;20053;-34
2023/10/01 04:44:07;;;;;;;4.22;3.00;;;20.40;85.40;;;;;;5072879;28;20083;-32
2023/10/01 04:46:37;;;;;;;3.17;2.47;;;20.20;67.70;;;;;;5072835;28;20044;-33
2023/10/01 04:49:08;;;;;;;3.88;2.70;;;20.20;67.70;;;;;;5072529;28;20045;-33
2023/10/01 04:51:45;;;;;;;3.40;3.00;;;20.60;85.40;;;;;;5072621;28;20071;-35
2023/10/01 04:54:17;;;;;;;4.03;2.90;;;;;;;;;;5072284;28;20052;-32
2023/10/01 04:56:45;;;;;;;3.83;2.58;;;20.10;69.00;;;;;;5072718;28;20051;-32
2023/10/01 04:59:12;;;;;;;4.22;2.90;;;19.70;83.60;;;;;;5072000;28;20673;-35
2023/10/01 05:01:40;;;;;;;4.13;3.00;;;19.80;74.00;;;;;;5072448;28;20124;-32
2023/10/01 05:04:10;;;;;;;3.13;2.53;;;19.80;71.70;;;;;;5072238;28;20533;-35
2023/10/01 05:06:36;;;;;;;3.35;2.65;;;20.50;81.20;;;;;;5072263;28;20575;-34
2023/10/01 05:09:07;;;;;;;3.60;2.60;;;;;;;;;;5072024;28;20119;-33
2023/10/01 05:11:34;;;;;;;3.53;2.53;;;20.10;73.80;;;;;;5072229;28;20063;-34
2023/10/01 05:14:04;;;;;;;3.55;2.60;;;20.30;73.70;;;;;;5072292;28;20098;-35
2023/10/01 05:16:32;;;;;;;3.88;2.67;;;19.70;85.70;;;;;;5072215;28;20060;-35
2023/10/01 05:19:10;;;;;;;3.45;2.70;;;21.00;86.10;;;;;;5071740;28;20131;-37
2023/10/01 05:21:46;;;;;;;3.78;2.90;;;21.30;73.40;;;;;;5071936;28;20048;-34
2023/10/01 05:24:15;;;;;;;4.07;2.72;;;19.60;73.30;;;;;;5072159;28;20048;-33
2023/10/01 05:26:43;;;;;;;3.75;2.75;;;19.80;85.00;;;;;;5072082;28;20448;-36
2023/10/01 05:29:13;;;;;;;3.78;2.83;;;;;;;;;;5071562;28;20044;-33
2023/10/01 05:31:41;;;;;;;5.07;3.08;;;20.10;85.20;;;;;;5072222;28;20106;-32
2023/10/01 05:34:11;;;;;;;3.83;2.83;;;20.90;86.40;;;;;;5071530;28;20117;-35
2023/10/01 05:36:38;;;;;;;4.57;2.85;;;20.10;82.40;;;;;;5071591;28;20052;-35
2023/10/01 05:39:11;;;;;;;3.70;2.72;;;;;;;;;;5071656;28;20128;-31
2023/10/01 05:41:44;;;;;;;4.03;2.85;;;21.00;80.50;;;;;;5071883;28;20050;-35
2023/10/01 05:44:12;;;;;;;4.60;2.88;;;20.00;85.20;;;;;;5071777;28;20117;-33
2023/10/01 05:46:38;;;;;;;4.18;2.80;;;20.80;85.60;;;;;;5072027;28;20123;-36
2023/10/01 05:49:08;;;;;;;4.07;2.97;;;21.00;85.60;;;;;;5071442;28;20679;-36
2023/10/01 05:51:45;;;;;;;3.88;2.80;;;20.20;85.40;;;;;;5071864;28;20459;-35
2023/10/01 05:54:18;;;;;;;3.85;2.72;;;;;;;;;;5071529;28;20052;-35
2023/10/01 05:56:48;;;;;;;3.58;2.67;;;19.80;85.50;;;;;;5071853;28;20053;-37
2023/10/01 05:59:15;;;;;;;3.78;2.80;;;;;;;;;;5071591;28;20063;-36
2023/10/01 06:01:43;;;;;;;3.97;3.10;;;;;;;;;;5071711;28;20139;-34
2023/10/01 06:04:12;;;;;;;3.03;2.60;;;20.20;80.60;;;;;;5071408;28;20494;-36
2023/10/01 06:06:42;;;;;;;3.83;2.78;;;21.20;86.00;;;;;;5072330;28;20056;-35
2023/10/01 06:09:14;;;;;;;3.90;2.85;;;19.80;79.10;;;;;;5075528;28;20040;-34
2023/10/01 06:11:48;;;;;;;4.88;3.22;;;19.90;86.00;;;;;;5075713;28;20052;-36
2023/10/01 06:17:10;;;;;;;4.38;2.88;;;20.30;67.40;;;;;;5130009;27;20399;-36
2023/10/01 06:19:38;;;;;;;4.50;2.97;;;19.50;84.40;;;;;;5115196;28;20508;-35
2023/10/01 06:22:22;;;;;;;4.53;3.00;;;;;;;;;;5109675;28;20077;-33
2023/10/01 06:24:49;;;;;;;4.28;2.72;;;;;;;;;;5109637;28;20137;-31
2023/10/01 06:27:18;;;;;;;3.40;2.80;;;21.20;85.20;;;;;;5109292;28;20048;-35
2023/10/01 06:29:50;;;;;;;4.80;3.13;;;;;;;;;;5109141;28;20748;-34
2023/10/01 06:32:20;;;;;;;4.55;2.95;;;20.30;67.10;;;;;;5109506;28;20070;-35
2023/10/01 06:34:49;;;;;;;3.63;2.70;;;;;;;;;;5109249;28;20051;-32
2023/10/01 06:37:16;;;;;;;3.90;2.65;;;20.50;85.20;;;;;;5108998;28;20075;-36
2023/10/01 06:39:43;;;;;;;3.40;2.75;;;;;;;;;;5106883;28;20437;-33
2023/10/01 06:42:19;;;;;;;4.28;2.90;;;;;;;;;;5107707;28;20098;-32
2023/10/01 06:44:48;;;;;;;3.35;2.58;;;;;;;;;;5106653;28;20055;-37
2023/10/01 06:47:16;;;;;;;4.40;2.90;;;;;;;;;;5108214;28;20058;-30
2023/10/01 06:49:57;;;;;;;3.80;2.72;;;20.30;67.00;;;;;;5108165;28;20052;-29
2023/10/01 06:52:25;;;;;;;3.83;2.80;;;20.40;67.00;;;;;;5108189;28;20458;-29
2023/10/01 06:54:52;;;;;;;4.15;2.88;;;21.00;72.70;;;;;;5108328;28;20126;-29
2023/10/01 06:57:21;;;;;;;3.60;2.55;;;;;;;;;;5107642;28;20131;-30
2023/10/01 06:59:48;;;;;;;3.70;2.78;;;20.60;84.70;;;;;;5107728;28;20101;-30
2023/10/01 07:02:15;;;;;;;3.70;2.70;;;;;;;;;;5107949;28;20409;-29
2023/10/01 07:04:55;;;;;;;4.07;2.85;;;;;;;;;;5107855;28;20086;-28
2023/10/01 07:07:24;;;;;;;3.95;2.67;;;;;;;;;;5108098;28;20164;-31
2023/10/01 07:09:53;;;;;;;4.43;3.08;;;;;;;;;;5107544;28;20055;-29
2023/10/01 07:12:23;;;;;;;3.85;2.72;;;;;;;;;;5107698;28;20062;-29
2023/10/01 07:14:51;;;;;;;3.75;2.72;;;;;;;;;;5107454;28;20063;-30
2023/10/01 07:17:23;;;;;;;3.75;2.80;;;;;;;;;;5107328;28;20055;-31
2023/10/01 07:19:59;;;;;;;3.67;2.58;;;;;;;;;;5107539;28;20126;-29
2023/10/01 07:22:30;;;;;;;3.78;2.72;;;20.30;85.00;;;;;;5107494;28;20043;-29
2023/10/01 07:24:59;;;;;;;3.95;2.90;;;;;;;;;;5107591;28;20078;-28
2023/10/01 07:27:26;;;;;;;3.30;2.63;;;;;;;;;;5099345;28;20067;-30
2023/10/01 07:29:54;;;;;;;4.38;2.50;;;;;;;;;;5093465;28;20408;-29
2023/10/01 07:32:22;;;;;;;4.53;3.20;;;;;;;;;;5093661;28;20408;-29
2023/10/01 07:34:55;;;;;;;3.65;2.42;;;20.40;74.40;;;;;;5093804;28;20093;-29
2023/10/01 07:37:25;;;;;;;3.45;2.60;;;20.30;85.70;;;;;;5092536;28;20044;-29
2023/10/01 07:39:55;;;;;;;4.22;2.60;;;20.30;86.10;;;;;;5093354;28;20044;-29
2023/10/01 07:42:23;;;;;;;3.63;2.65;;;20.30;67.70;;;;;;5092844;28;20040;-29
2023/10/01 07:44:49;;;;;;;3.70;2.60;;;20.30;86.20;;;;;;5093112;28;20127;-29
2023/10/01 07:47:29;;;;;;;5.05;2.78;;;;;;;;;;5092699;28;20130;-28
2023/10/01 07:49:56;;;;;;;3.70;2.70;;;;;;;;;;5092813;28;20055;-30
2023/10/01 07:52:23;;;;;;;4.70;3.20;;;20.30;76.00;;;;;;5092572;28;20123;-30
2023/10/01 07:54:50;;;;;;;4.07;2.67;;;;;;;;;;5092746;28;20048;-29
2023/10/01 07:57:26;;;;;;;5.55;2.65;;;19.00;85.30;;;;;;5091756;28;20127;-29
2023/10/01 07:59:54;;;;;;;4.70;3.10;;;;;;;;;;5090324;28;20044;-30
2023/10/01 08:02:24;;;;;;;4.72;3.10;;;20.50;85.90;;;;;;5092923;28;20152;-29
2023/10/01 08:05:00;;;;;;;3.85;2.78;;;20.00;67.90;;;;;;5092542;28;20133;-30
2023/10/01 08:07:30;;;;;;;5.15;2.90;;;20.00;67.90;;;;;;5092398;28;20051;-30
2023/10/01 08:09:58;;;;;;;5.28;2.67;;;20.30;68.10;;;;;;5092308;28;20052;-28
2023/10/01 08:12:29;;;;;;;5.30;2.92;;;20.00;67.90;;;;;;5092607;28;20098;-29
2023/10/01 08:17:37;;;;;;;5.75;3.40;;;20.40;82.60;;;;;;5087757;28;20048;-30
2023/10/01 08:20:17;;;;;;;5.03;2.83;;;19.60;86.30;;;;;;5091766;28;20160;-31
2023/10/01 08:23:12;;;;;;;4.95;3.10;;;19.90;85.60;;;;;;5090441;28;20119;-30
2023/10/01 08:25:33;;;;;;;3.92;2.95;;;;;;;;;;5092241;28;20052;-30
2023/10/01 08:31:01;;;;;;;5.30;3.08;;;20.10;86.40;;;;;;5092248;28;20044;-28
2023/10/01 08:33:32;;;;;;;4.70;2.97;;;19.50;85.50;;;;;;5092470;28;20138;-29
2023/10/01 08:36:01;;;;;;;4.65;2.83;;;20.00;86.20;;;;;;5091654;28;20048;-30
2023/10/01 08:38:29;;;;;;;4.93;3.05;;;;;;;;;;5091434;28;20501;-29
2023/10/01 08:41:00;;;;;;;4.60;3.22;;;19.80;68.10;;;;;;5092029;28;20048;-30
2023/10/01 08:43:28;;;;;;;5.13;3.08;;;21.00;86.40;;;;;;5092392;28;20137;-29
2023/10/01 08:45:55;;;;;;;3.72;2.65;;;19.50;74.20;;;;;;5092054;28;20044;-33
2023/10/01 08:48:22;;;;;;;4.90;3.00;;;;;;;;;;5091504;28;20573;-34
2023/10/01 08:50:49;;;;;;;5.43;3.22;;;20.80;80.30;;;;;;5092036;28;20040;-34
2023/10/01 08:53:16;;;;;;;5.07;3.35;;;19.20;85.60;;;;;;5091888;28;20079;-38
2023/10/01 08:58:26;;;;;;;4.32;2.72;;;20.10;82.20;;;;;;5090374;28;20408;-35
2023/10/01 09:00:56;;;;;;;5.63;3.67;;;19.80;86.20;;;;;;5092063;28;20052;-37
2023/10/01 09:03:30;;;;;;;4.03;2.70;;;;;;;;;;5091740;28;20044;-32
2023/10/01 09:06:03;;;;;;;4.60;3.08;;;;;;;;;;5091535;28;20482;-34
2023/10/01 09:08:31;;;;;;;4.70;2.80;;;20.00;70.50;;;;;;5091793;28;20048;-35
2023/10/01 09:10:59;;;;;;;4.25;2.97;;;19.90;84.90;;;;;;5091665;28;20079;-36
2023/10/01 09:13:30;;;;;;;5.70;3.13;;;19.60;85.80;;;;;;5091424;28;20554;-34
2023/10/01 09:16:10;;;;;;;5.38;3.22;;;19.90;68.20;;;;;;5091455;28;20131;-36
2023/10/01 09:18:38;;;;;;;6.43;3.00;;;19.80;68.30;;;;;;5091422;28;20047;-35
2023/10/01 09:21:08;;;;;;;5.22;3.22;;;20.60;74.50;;;;;;5091799;28;20059;-36
2023/10/01 09:23:54;;;;;;;4.22;2.70;;;20.20;86.30;;;;;;5091793;28;20058;-34
2023/10/01 09:26:37;;;;;;;4.75;3.00;;;20.00;86.00;;;;;;5091379;28;20052;-34
2023/10/01 09:29:13;;;;;;;3.92;2.72;;;19.60;85.80;;;;;;5091471;28;20109;-34
2023/10/01 09:31:52;;;;;;;4.47;2.95;;;19.90;68.30;;;;;;5091677;28;20051;-35
2023/10/01 09:34:31;;;;;;;5.43;2.70;;;20.20;86.50;;;;;;5091578;28;20047;-34
2023/10/01 09:37:00;;;;;;;4.93;3.20;;;19.60;86.10;;;;;;5090561;28;20123;-36
2023/10/01 09:39:38;;;;;;;4.30;2.97;;;19.90;68.20;;;;;;5091153;28;20086;-32
2023/10/01 09:42:22;;;;;;;4.03;2.85;;;20.40;79.20;;;;;;5091200;28;20055;-35
2023/10/01 09:44:52;;;;;;;5.33;3.20;;;20.20;85.90;;;;;;5091492;28;20044;-33
2023/10/01 09:47:23;;;;;;;4.35;2.92;;;19.90;68.20;;;;;;5090869;28;20492;-34
2023/10/01 09:49:50;;;;;;;3.88;2.72;;;19.20;86.30;;;;;;5090495;28;20052;-34
2023/10/01 09:52:26;;;;;;;5.72;3.08;;;20.00;85.80;;;;;;5091200;28;20062;-28
2023/10/01 09:54:56;;;;;;;3.85;2.78;;;19.90;68.20;;;;;;5091301;28;20048;-29
2023/10/01 09:57:24;;;;;;;4.82;3.13;;;20.10;78.80;;;;;;5090817;28;20135;-30
2023/10/01 09:59:51;;;;;;;4.25;3.05;;;;;;;;;;5090879;28;20417;-29
2023/10/01 10:02:27;;;;;;;4.47;2.92;;;20.00;85.90;;;;;;5091055;28;20127;-28
2023/10/01 10:04:54;;;;;;;4.32;2.83;;;;;;;;;;5091148;28;20130;-29
2023/10/01 10:07:24;;;;;;;6.28;3.30;;;;;;;;;;5090779;28;20044;-32
2023/10/01 10:09:54;;;;;;;5.45;3.47;;;19.80;74.60;;;;;;5090794;28;20087;-30
2023/10/01 10:12:33;;;;;;;4.95;3.08;;;19.90;68.10;;;;;;5090775;28;20049;-32
2023/10/01 10:15:01;;;;;;;5.07;2.97;;;;;;;;;;5091167;28;20056;-29
2023/10/01 10:17:38;;;;;;;5.55;3.00;;;19.90;68.10;;;;;;5090761;28;20098;-31
2023/10/01 10:20:25;;;;;;;5.95;3.22;;;18.80;85.70;;;;;;5090449;28;20055;-30
2023/10/01 10:23:13;;;;;;;4.88;3.17;;;19.90;68.20;;;;;;5091195;28;20075;-28
2023/10/01 10:25:40;;;;;;;3.95;2.72;;;;;;;;;;5090868;28;20048;-30
2023/10/01 10:28:09;;;;;;;5.38;2.97;;;20.70;80.60;;;;;;5090566;28;20118;-29
2023/10/01 10:30:40;;;;;;;5.47;3.10;;;;;;;;;;5090707;28;20109;-29
2023/10/01 10:33:42;;;;;;;5.63;2.80;;;19.90;68.10;;;;;;5090779;28;20054;-30
2023/10/01 10:36:50;;;;;;;4.60;3.00;;;18.70;85.20;;;;;;5072875;28;20056;-28
2023/10/01 10:40:22;;;;;;;4.22;2.70;;;19.60;85.60;;;;;;5089927;28;20051;-29
2023/10/01 10:43:16;;;;;;;4.32;2.63;;;19.90;68.20;;;;;;5082769;28;20040;-29
2023/10/01 10:45:58;;;;;;;6.70;3.13;;;19.90;68.20;;;;;;5087457;28;20044;-30
2023/10/01 10:48:46;;;;;;;4.70;2.97;;;21.00;78.60;;;;;;5087948;28;20047;-30
2023/10/01 10:51:29;;;;;;;5.20;3.17;;;19.50;71.70;;;;;;5082935;28;20048;-30
2023/10/01 10:54:00;;;;;;;5.07;2.95;;;20.00;76.70;;;;;;5086727;28;20083;-29
2023/10/01 10:56:35;;;;;;;4.32;2.90;;;;;;;;;;5087878;28;20048;-30
2023/10/01 10:59:03;;;;;;;;;;;19.90;68.20;;;;;;5093178;28;20075;-29
2023/10/01 11:01:43;;;;;;;5.43;3.03;;;20.20;86.50;;;;;;5098597;28;20572;-29
2023/10/01 11:04:09;;;;;;;5.65;2.97;;;19.80;85.80;;;;;;5102957;28;20072;-28
2023/10/01 11:06:42;;;;;;;4.90;2.90;;;20.00;68.30;;;;;;5106236;28;20132;-32
2023/10/01 11:09:22;;;;;;;4.57;2.90;;;19.70;85.70;;;;;;5101902;28;20044;-28
2023/10/01 11:11:49;;;;;;;6.43;3.20;;;;;;;;;;5093924;28;20044;-30
2023/10/01 11:14:16;;;;;;;5.07;3.05;;;;;;;;;;5093917;28;20127;-29
2023/10/01 11:16:44;;;;;;;6.28;3.10;;;19.80;70.60;;;;;;5093290;28;20051;-29
2023/10/01 11:19:14;;;;;;;7.28;3.08;;;20.00;68.30;;;;;;5090499;28;20695;-31
2023/10/01 11:21:56;;;;;;;5.35;2.90;;;19.80;85.80;;;;;;5094226;28;20044;-30
2023/10/01 11:24:30;;;;;;;5.35;3.08;;;19.60;85.60;;;;;;5094031;28;20055;-28
2023/10/01 11:27:18;;;;;;;4.30;2.80;;;20.00;68.20;;;;;;5093400;28;20056;-27
2023/10/01 11:29:56;;;;;;;6.40;3.20;;;19.60;79.10;;;;;;5092690;28;20048;-28
2023/10/01 11:33:01;;;;;;;4.63;3.05;;;20.00;68.30;;;;;;5094073;28;20052;-27
2023/10/01 11:35:35;;;;;;;4.75;2.85;;;20.20;70.60;;;;;;5091433;28;20051;-31
2023/10/01 11:38:08;;;;;;;4.68;3.20;;;20.00;68.20;;;;;;5091202;28;20428;-29
2023/10/01 11:43:32;;;;;;;6.40;3.40;;;;;;;;;;5093286;28;20063;-29
2023/10/01 11:46:23;;;;;;;3.47;2.85;;;19.90;85.70;;;;;;5090999;28;20055;-28
2023/10/01 11:49:06;;;;;;;5.07;2.85;;;19.60;68.10;;;;;;5092742;28;20513;-29
2023/10/01 11:51:36;;;;;;;5.57;2.90;;;20.40;83.40;;;;;;5090564;28;20052;-28
2023/10/01 11:54:09;;;;;;;4.57;2.90;;;20.10;82.30;;;;;;5093278;28;20071;-29
2023/10/01 11:56:41;;;;;;;7.47;3.05;;;19.90;68.20;;;;;;5092996;28;20101;-28
2023/10/01 11:59:10;;;;;;;5.30;3.38;;;;;;;;;;5092751;28;20674;-30
2023/10/01 12:01:47;;;;;;;8.20;3.83;;;20.00;74.90;;;;;;5092416;28;20046;-30
2023/10/01 12:04:21;;;;;;;6.97;3.20;;;19.10;85.20;;;;;;5092791;28;20055;-29
2023/10/01 12:06:49;;;;;;;5.30;3.10;;;;;;;;;;5092400;28;20044;-30
2023/10/01 12:09:18;;;;;;;5.43;3.15;;;20.30;70.80;;;;;;5092044;28;20084;-29
2023/10/01 12:12:02;;;;;;;5.47;3.28;;;19.70;71.00;;;;;;5092626;28;20044;-30
2023/10/01 12:14:29;;;;;;;5.00;3.08;;;;;;;;;;5084661;28;20067;-31
2023/10/01 12:16:58;;;;;;;5.95;3.33;;;19.70;74.90;;;;;;5092347;28;20040;-29
2023/10/01 12:19:25;;;;;;;5.07;2.85;;;19.80;71.30;;;;;;5092145;28;20132;-29
2023/10/01 12:22:05;;;;;;;5.28;3.15;;;19.80;79.20;;;;;;5092651;28;20177;-28
2023/10/01 12:24:40;;;;;;;6.18;3.20;;;19.70;85.70;;;;;;5092720;28;20052;-29
2023/10/01 12:27:10;;;;;;;5.95;3.42;;;19.90;68.20;;;;;;5092687;28;20054;-30
2023/10/01 12:29:42;;;;;;;5.97;3.13;;;;;;;;;;5092067;28;20072;-29
2023/10/01 12:32:14;;;;;;;4.35;2.90;;;20.00;68.20;;;;;;5092053;28;20429;-31
2023/10/01 12:34:42;;;;;;;5.00;2.90;;;19.30;86.20;;;;;;5090578;28;20040;-28
2023/10/01 12:37:35;;;;;;;5.57;3.22;;;;;;;;;;5090911;28;20712;-30
2023/10/01 12:40:14;;;;;;;5.18;3.00;;;20.50;78.90;;;;;;5090991;28;20048;-29
2023/10/01 12:42:46;;;;;;;5.95;3.20;;;19.50;85.90;;;;;;5092277;28;20048;-31
2023/10/01 12:45:19;;;;;;;5.78;3.00;;;;;;;;;;5092165;28;20044;-28
2023/10/01 12:47:50;;;;;;;4.93;3.05;;;;;;;;;;5093259;28;20085;-29
2023/10/01 12:50:26;;;;;;;6.10;3.22;;;19.80;85.90;;;;;;5093135;28;20506;-28
2023/10/01 12:53:19;;;;;;;4.85;2.78;;;19.90;68.20;;;;;;5093262;28;20405;-29
2023/10/01 12:55:51;;;;;;;4.45;2.88;;;20.00;86.00;;;;;;5091937;28;20611;-28
2023/10/01 12:58:20;;;;;;;5.90;3.10;;;20.00;73.90;;;;;;5093201;28;20124;-29
2023/10/01 13:00:46;;;;;;;4.18;2.88;;;19.80;86.40;;;;;;5093006;28;20072;-29
2023/10/01 13:03:16;;;;;;;4.55;2.88;;;20.20;86.00;;;;;;5093112;28;20090;-28
2023/10/01 13:05:45;;;;;;;5.45;3.05;;;20.10;85.90;;;;;;5093292;28;20151;-27
2023/10/01 13:08:13;;;;;;;6.30;3.25;;;19.20;85.50;;;;;;5092799;28;20165;-28
2023/10/01 13:10:50;;;;;;;5.95;3.20;;;19.60;85.80;;;;;;5092847;28;20127;-27
2023/10/01 13:13:20;;;;;;;4.80;2.88;;;20.70;78.90;;;;;;5091970;28;20058;-28
2023/10/01 13:15:54;;;;;;;6.22;3.17;;;20.20;81.30;;;;;;5092689;28;20552;-27
2023/10/01 13:18:28;;;;;;;5.00;3.30;;;19.90;73.90;;;;;;5092707;28;20127;-28
2023/10/01 13:20:59;;;;;;;5.28;3.30;;;;;;;;;;5091797;28;20052;-31
2023/10/01 13:23:28;;;;;;;5.28;2.80;;;19.70;85.80;;;;;;5092580;28;20106;-28
2023/10/01 13:26:06;;;;;;;4.90;3.13;;;;;;;;;;5092154;28;20044;-29
2023/10/01 13:28:46;;;;;;;4.55;3.15;;;19.90;86.30;;;;;;5092428;28;20055;-28
2023/10/01 13:31:35;;;;;;;9.20;2.90;;;19.10;86.50;;;;;;5092643;28;20044;-28
2023/10/01 13:34:09;;;;;;;5.70;3.25;;;19.90;68.30;;;;;;5087193;28;20417;-28
2023/10/01 13:36:47;;;;;;;4.35;2.83;;;19.70;86.10;;;;;;5078346;28;20123;-29
2023/10/01 13:39:25;;;;;;;5.57;3.22;;;20.80;79.80;;;;;;5092349;28;20044;-28
2023/10/01 14:09:47;;;;;;;6.00;3.35;;;;;;;;;;5057600;28;20515;-28
2023/10/01 14:12:12;;;;;;;4.70;2.92;;;20.40;86.60;;;;;;5091823;28;20052;-29
2023/10/01 14:14:43;;;;;;;5.78;3.30;;;;;;;;;;5091859;28;20596;-28
2023/10/01 14:17:14;;;;;;;5.63;3.40;;;20.00;86.40;;;;;;5092135;28;20170;-28
2023/10/01 14:19:42;;;;;;;4.60;2.90;;;20.00;74.30;;;;;;5091539;28;20076;-28
2023/10/01 14:22:19;;;;;;;5.63;3.28;;;18.80;81.10;;;;;;5073739;28;20488;-28
2023/10/01 14:24:46;;;;;;;5.30;3.20;;;20.40;86.20;;;;;;5091803;28;20493;-28
2023/10/01 14:27:24;;;;;;;5.20;2.97;;;19.90;69.50;;;;;;5092069;28;20119;-28